createdAt,value
2023-01-15T00:02:24.711Z,62.88
2023-01-15T00:04:53.208Z,62.74
2023-01-15T00:07:21.715Z,64.65
2023-01-15T00:09:51.417Z,62.22
2023-01-15T00:12:19.956Z,63.31
2023-01-15T00:14:49.804Z,64.29
2023-01-15T00:17:18.239Z,63.91
2023-01-15T00:19:47.748Z,63.00
2023-01-15T00:22:16.627Z,61.39
2023-01-15T00:25:02.643Z,61.88
2023-01-15T00:27:44.260Z,60.74
2023-01-15T00:30:16.156Z,61.33
2023-01-15T00:32:45.874Z,62.95
2023-01-15T00:35:16.131Z,63.22
2023-01-15T00:37:44.818Z,62.66
2023-01-15T00:40:13.514Z,61.05
2023-01-15T00:42:43.132Z,59.82
2023-01-15T00:45:17.265Z,62.18
2023-01-15T00:47:48.307Z,61.67
2023-01-15T00:50:17.265Z,63.90
2023-01-15T00:52:45.698Z,63.03
2023-01-15T00:55:14.195Z,62.71
2023-01-15T00:57:42.387Z,63.76
2023-01-15T01:00:12.727Z,63.23
2023-01-15T01:02:43.275Z,62.31
2023-01-15T01:05:11.743Z,62.47
2023-01-15T01:07:43.169Z,61.88
2023-01-15T01:10:12.145Z,62.00
2023-01-15T01:12:41.344Z,62.86
2023-01-15T01:15:11.115Z,62.26
2023-01-15T01:17:42.413Z,61.97
2023-01-15T01:20:17.175Z,64.24
2023-01-15T01:22:45.951Z,62.52
2023-01-15T01:25:14.387Z,63.20
2023-01-15T01:27:45.926Z,61.88
2023-01-15T01:30:15.933Z,61.05
2023-01-15T01:32:46.523Z,61.49
2023-01-15T01:35:16.661Z,60.87
2023-01-15T01:37:45.461Z,60.52
2023-01-15T01:40:14.408Z,61.09
2023-01-15T01:42:42.800Z,62.30
2023-01-15T01:45:25.091Z,62.60
2023-01-15T01:47:55.831Z,64.22
2023-01-15T01:50:27.111Z,63.47
2023-01-15T01:53:03.115Z,62.13
2023-01-15T01:55:34.752Z,61.32
2023-01-15T01:58:05.735Z,62.24
2023-01-15T02:00:42.473Z,62.58
2023-01-15T02:03:11.563Z,61.90
2023-01-15T02:05:47.360Z,62.08
2023-01-15T02:08:16.043Z,62.80
2023-01-15T02:10:44.219Z,63.61
2023-01-15T02:13:19.069Z,61.84
2023-01-15T02:15:51.931Z,62.02
2023-01-15T02:18:25.337Z,59.56
2023-01-15T02:20:59.963Z,61.23
2023-01-15T02:23:39.942Z,60.79
2023-01-15T02:29:33.708Z,62.13
2023-01-15T02:32:09.243Z,61.26
2023-01-15T02:34:44.889Z,62.92
2023-01-15T02:37:20.463Z,61.16
2023-01-15T02:39:51.029Z,60.99
2023-01-15T02:42:26.163Z,61.29
2023-01-15T02:44:59.919Z,60.28
2023-01-15T02:47:34.739Z,59.54
2023-01-15T02:50:08.648Z,61.43
2023-01-15T02:52:45.770Z,62.79
2023-01-15T02:55:21.885Z,62.56
2023-01-15T02:57:55.364Z,61.43
2023-01-15T03:00:27.946Z,61.33
2023-01-15T03:03:02.433Z,62.22
2023-01-15T03:05:37.896Z,61.44
2023-01-15T03:08:10.369Z,59.83
2023-01-15T03:10:47.661Z,59.85
2023-01-15T03:13:20.978Z,62.38
2023-01-15T03:16:17.419Z,61.38
2023-01-15T03:18:54.686Z,59.87
2023-01-15T03:21:32.653Z,59.77
2023-01-15T03:24:06.033Z,60.98
2023-01-15T03:26:34.600Z,62.91
2023-01-15T03:29:05.971Z,60.40
2023-01-15T03:31:37.801Z,61.14
2023-01-15T03:34:07.375Z,60.83
2023-01-15T03:36:36.263Z,61.76
2023-01-15T03:39:05.542Z,62.53
2023-01-15T03:42:00.704Z,63.79
2023-01-15T03:44:40.174Z,64.39
2023-01-15T03:47:21.841Z,62.77
2023-01-15T03:50:00.710Z,61.00
2023-01-15T03:52:43.668Z,60.77
2023-01-15T03:55:17.010Z,60.74
2023-01-15T03:58:00.372Z,59.70
2023-01-15T04:00:37.456Z,61.24
2023-01-15T04:03:10.676Z,62.61
2023-01-15T04:05:41.055Z,62.80
2023-01-15T04:08:11.352Z,64.56
2023-01-15T04:10:39.888Z,62.67
2023-01-15T04:13:11.853Z,64.75
2023-01-15T04:15:42.598Z,60.85
2023-01-15T04:18:12.582Z,62.25
2023-01-15T04:20:41.336Z,61.65
2023-01-15T04:23:10.060Z,60.65
2023-01-15T04:25:38.310Z,61.86
2023-01-15T04:28:06.696Z,61.46
2023-01-15T04:30:35.437Z,62.10
2023-01-15T04:33:04.524Z,63.09
2023-01-15T04:35:36.129Z,60.90
2023-01-15T04:38:04.674Z,61.57
2023-01-15T04:40:50.644Z,60.40
2023-01-15T04:43:36.718Z,59.47
2023-01-15T04:46:05.367Z,60.81
2023-01-15T04:48:33.545Z,61.00
2023-01-15T04:51:05.651Z,59.78
2023-01-15T04:53:34.902Z,59.34
2023-01-15T04:56:03.767Z,60.52
2023-01-15T04:58:32.883Z,64.32
2023-01-15T05:01:01.873Z,62.94
2023-01-15T05:03:30.654Z,61.96
2023-01-15T05:06:02.716Z,61.94
2023-01-15T05:08:35.165Z,61.46
2023-01-15T05:11:06.639Z,60.21
2023-01-15T05:13:35.686Z,60.77
2023-01-15T05:16:19.289Z,60.23
2023-01-15T05:18:48.804Z,61.06
2023-01-15T05:21:20.793Z,60.95
2023-01-15T05:23:51.584Z,62.15
2023-01-15T05:26:21.221Z,61.20
2023-01-15T05:28:50.086Z,61.05
2023-01-15T05:31:20.709Z,61.33
2023-01-15T05:33:51.212Z,61.23
2023-01-15T05:36:21.723Z,62.26
2023-01-15T05:38:52.455Z,61.10
2023-01-15T05:41:39.992Z,60.52
2023-01-15T05:44:10.541Z,60.24
2023-01-15T05:46:41.153Z,60.21
2023-01-15T05:49:12.975Z,60.33
2023-01-15T05:51:42.107Z,60.14
2023-01-15T05:54:14.520Z,61.45
2023-01-15T05:56:43.851Z,62.10
2023-01-15T05:59:13.116Z,61.20
2023-01-15T06:01:42.100Z,61.99
2023-01-15T06:04:14.256Z,62.18
2023-01-15T06:06:43.528Z,62.73
2023-01-15T06:09:13.471Z,62.64
2023-01-15T06:11:42.472Z,61.64
2023-01-15T06:14:12.705Z,61.30
2023-01-15T06:16:41.905Z,61.99
2023-01-15T06:19:14.782Z,60.93
2023-01-15T06:21:43.412Z,61.17
2023-01-15T06:24:17.314Z,61.88
2023-01-15T06:26:46.114Z,61.76
2023-01-15T06:29:18.830Z,61.46
2023-01-15T06:31:49.599Z,65.16
2023-01-15T06:34:18.224Z,61.52
2023-01-15T06:36:46.712Z,60.41
2023-01-15T06:39:16.562Z,62.78
2023-01-15T06:42:02.546Z,61.80
2023-01-15T06:44:48.727Z,60.98
2023-01-15T06:47:22.856Z,61.40
2023-01-15T06:50:00.438Z,61.05
2023-01-15T06:55:20.361Z,61.57
2023-01-15T06:57:48.794Z,62.54
2023-01-15T07:00:18.061Z,63.71
2023-01-15T07:02:46.733Z,60.10
2023-01-15T07:05:15.117Z,60.29
2023-01-15T07:07:43.613Z,62.44
2023-01-15T07:10:15.959Z,60.26
2023-01-15T07:12:45.859Z,58.98
2023-01-15T07:15:14.495Z,59.91
2023-01-15T07:17:42.692Z,61.79
2023-01-15T07:20:12.560Z,60.69
2023-01-15T07:22:41.065Z,59.73
2023-01-15T07:25:13.536Z,62.11
2023-01-15T07:27:42.071Z,61.80
2023-01-15T07:30:16.341Z,60.01
2023-01-15T07:32:44.962Z,60.61
2023-01-15T07:35:13.425Z,59.12
2023-01-15T07:37:44.214Z,58.48
2023-01-15T07:40:15.920Z,59.26
2023-01-15T07:43:02.170Z,60.77
2023-01-15T07:45:49.870Z,61.11
2023-01-15T07:48:36.225Z,60.00
2023-01-15T07:51:05.168Z,59.66
2023-01-15T07:53:33.411Z,58.34
2023-01-15T07:56:02.278Z,58.01
2023-01-15T07:58:31.114Z,57.67
2023-01-15T08:01:01.557Z,59.18
2023-01-15T08:03:30.560Z,58.61
2023-01-15T08:05:59.646Z,57.35
2023-01-15T08:08:28.352Z,58.73
2023-01-15T08:11:14.482Z,59.12
2023-01-15T08:14:00.759Z,58.68
2023-01-15T08:16:31.244Z,59.06
2023-01-15T08:19:00.134Z,58.83
2023-01-15T08:21:31.587Z,58.95
2023-01-15T08:24:00.484Z,58.34
2023-01-15T08:26:29.460Z,58.54
2023-01-15T08:28:59.606Z,60.07
2023-01-15T08:31:29.168Z,58.84
2023-01-15T08:34:01.470Z,60.70
2023-01-15T08:36:30.758Z,58.65
2023-01-15T08:39:00.026Z,59.40
2023-01-15T08:41:31.012Z,58.17
2023-01-15T08:44:00.108Z,59.99
2023-01-15T08:46:28.586Z,58.79
2023-01-15T08:48:58.547Z,58.16
2023-01-15T08:51:27.578Z,58.97
2023-01-15T08:53:56.042Z,58.43
2023-01-15T08:56:24.507Z,57.14
2023-01-15T08:58:53.080Z,55.98
2023-01-15T09:01:21.772Z,56.33
2023-01-15T09:03:50.365Z,57.14
2023-01-15T09:06:20.777Z,57.15
2023-01-15T09:08:49.473Z,55.84
2023-01-15T09:11:17.643Z,59.50
2023-01-15T09:13:46.953Z,57.33
2023-01-15T09:16:17.591Z,55.89
2023-01-15T09:18:46.275Z,58.02
2023-01-15T09:21:14.503Z,58.11
2023-01-15T09:23:44.319Z,55.96
2023-01-15T09:26:27.980Z,57.32
2023-01-15T09:28:57.086Z,57.33
2023-01-15T09:31:28.291Z,59.26
2023-01-15T09:33:57.843Z,57.95
2023-01-15T09:36:29.496Z,56.48
2023-01-15T09:39:01.126Z,56.15
2023-01-15T09:42:03.869Z,55.99
2023-01-15T09:44:44.783Z,57.20
2023-01-15T09:47:17.166Z,57.13
2023-01-15T09:49:59.369Z,56.32
2023-01-15T09:53:11.032Z,55.33
2023-01-15T09:55:47.204Z,55.87
2023-01-15T09:58:18.564Z,55.29
2023-01-15T10:00:51.805Z,55.68
2023-01-15T10:03:30.449Z,55.25
2023-01-15T10:06:10.270Z,56.29
2023-01-15T10:08:42.161Z,55.90
2023-01-15T10:11:46.816Z,58.49
2023-01-15T10:14:39.277Z,57.67
2023-01-15T10:17:23.377Z,56.31
2023-01-15T10:19:53.482Z,57.27
2023-01-15T10:22:33.792Z,57.00
2023-01-15T10:25:10.939Z,56.79
2023-01-15T10:27:45.084Z,55.70
2023-01-15T10:30:18.269Z,54.98
2023-01-15T10:33:02.055Z,57.75
2023-01-15T10:35:41.042Z,56.98
2023-01-15T10:38:17.912Z,55.35
2023-01-15T10:41:07.388Z,56.05
2023-01-15T10:43:48.127Z,59.13
2023-01-15T10:46:21.911Z,56.19
2023-01-15T10:48:53.420Z,57.54
2023-01-15T10:51:28.083Z,57.02
2023-01-15T10:54:04.562Z,56.04
2023-01-15T10:56:39.732Z,56.55
2023-01-15T10:59:22.392Z,57.62
2023-01-15T11:01:54.492Z,56.97
2023-01-15T11:04:23.801Z,56.80
2023-01-15T11:06:52.352Z,55.69
2023-01-15T11:09:24.015Z,55.20
2023-01-15T11:12:12.543Z,54.59
2023-01-15T11:15:01.007Z,55.58
2023-01-15T11:17:50.222Z,55.14
2023-01-15T11:20:30.838Z,58.07
2023-01-15T11:23:09.448Z,56.98
2023-01-15T11:25:39.690Z,56.64
2023-01-15T11:28:09.984Z,55.32
2023-01-15T11:30:41.220Z,55.68
2023-01-15T11:33:23.515Z,55.83
2023-01-15T11:35:58.343Z,57.50
2023-01-15T11:38:28.154Z,56.05
2023-01-15T11:40:59.839Z,56.75
2023-01-15T11:43:48.640Z,56.00
2023-01-15T11:46:47.690Z,56.54
2023-01-15T11:49:39.403Z,57.00
2023-01-15T11:52:11.923Z,56.93
2023-01-15T11:54:44.184Z,57.59
2023-01-15T11:57:13.400Z,56.38
2023-01-15T11:59:41.943Z,55.75
2023-01-15T12:02:23.152Z,56.64
2023-01-15T12:04:56.255Z,56.69
2023-01-15T12:07:26.848Z,55.71
2023-01-15T12:10:18.714Z,56.70
2023-01-15T12:13:02.376Z,56.33
2023-01-15T12:15:45.444Z,55.80
2023-01-15T12:18:58.448Z,57.76
2023-01-15T12:21:59.870Z,56.15
2023-01-15T12:24:48.317Z,56.73
2023-01-15T12:27:33.967Z,57.68
2023-01-15T12:30:07.693Z,57.02
2023-01-15T12:32:44.455Z,57.49
2023-01-15T12:35:20.262Z,57.92
2023-01-15T12:37:53.980Z,57.01
2023-01-15T12:40:30.700Z,58.38
2023-01-15T12:43:19.561Z,57.53
2023-01-15T12:45:53.534Z,56.22
2023-01-15T12:48:30.252Z,56.60
2023-01-15T12:51:02.629Z,56.69
2023-01-15T12:53:37.664Z,56.10
2023-01-15T12:56:15.987Z,57.28
2023-01-15T12:58:49.540Z,56.98
2023-01-15T13:01:33.474Z,56.14
2023-01-15T13:04:12.463Z,56.33
2023-01-15T13:06:48.458Z,56.06
2023-01-15T13:09:30.287Z,55.79
2023-01-15T13:12:00.450Z,56.94
2023-01-15T13:14:28.980Z,55.37
2023-01-15T13:17:03.445Z,55.78
2023-01-15T13:19:44.701Z,56.52
2023-01-15T13:22:22.289Z,57.40
2023-01-15T13:25:19.600Z,56.63
2023-01-15T13:28:01.477Z,57.08
2023-01-15T13:30:52.449Z,56.31
2023-01-15T13:33:29.579Z,55.88
2023-01-15T13:36:07.756Z,55.87
2023-01-15T13:38:41.896Z,55.89
2023-01-15T13:41:11.349Z,56.74
2023-01-15T13:43:44.291Z,57.96
2023-01-15T13:46:14.681Z,57.79
2023-01-15T13:48:46.058Z,57.22
2023-01-15T13:51:30.909Z,58.08
2023-01-15T13:54:04.337Z,57.50
2023-01-15T13:56:36.207Z,56.71
2023-01-15T13:59:08.255Z,56.95
2023-01-15T14:01:39.378Z,56.53
2023-01-15T14:04:15.370Z,56.08
2023-01-15T14:06:48.845Z,55.89
2023-01-15T14:09:32.156Z,56.46
2023-01-15T14:12:11.034Z,56.21
2023-01-15T14:14:59.238Z,56.78
2023-01-15T14:17:57.703Z,56.73
2023-01-15T14:20:44.682Z,56.87
2023-01-15T14:23:32.380Z,56.14
2023-01-15T14:26:13.379Z,56.76
2023-01-15T14:29:03.238Z,59.25
2023-01-15T14:31:44.255Z,57.93
2023-01-15T14:34:18.566Z,56.91
2023-01-15T14:37:01.608Z,57.82
2023-01-15T14:39:33.808Z,57.53
2023-01-15T14:42:35.516Z,57.27
2023-01-15T14:45:08.432Z,57.68
2023-01-15T14:47:46.793Z,57.38
2023-01-15T14:50:33.805Z,57.97
2023-01-15T14:53:07.925Z,57.10
2023-01-15T14:55:49.239Z,58.60
2023-01-15T14:58:31.615Z,56.76
2023-01-15T15:01:03.882Z,56.42
2023-01-15T15:03:38.646Z,57.18
2023-01-15T15:06:12.486Z,57.57
2023-01-15T15:08:43.648Z,56.73
2023-01-15T15:11:36.048Z,56.68
2023-01-15T15:14:07.578Z,57.62
2023-01-15T15:16:43.856Z,56.88
2023-01-15T15:19:19.684Z,58.02
2023-01-15T15:21:49.862Z,58.13
2023-01-15T15:24:24.805Z,57.02
2023-01-15T15:26:53.510Z,58.22
2023-01-15T15:29:26.704Z,58.72
2023-01-15T15:32:01.826Z,58.54
2023-01-15T15:34:34.267Z,57.73
2023-01-15T15:37:05.657Z,59.01
2023-01-15T15:39:45.922Z,58.63
2023-01-15T15:42:39.809Z,60.01
2023-01-15T15:45:35.019Z,58.18
2023-01-15T15:48:31.675Z,58.65
2023-01-15T15:51:03.170Z,58.42
2023-01-15T15:53:33.479Z,60.19
2023-01-15T15:56:10.934Z,60.07
2023-01-15T15:58:45.994Z,60.54
2023-01-15T16:01:41.993Z,59.38
2023-01-15T16:04:18.000Z,59.51
2023-01-15T16:06:48.795Z,60.60
2023-01-15T16:09:23.121Z,58.80
2023-01-15T16:11:55.726Z,59.22
2023-01-15T16:14:27.945Z,58.19
2023-01-15T16:16:56.985Z,58.12
2023-01-15T16:19:27.795Z,57.37
2023-01-15T16:21:58.279Z,58.42
2023-01-15T16:24:29.461Z,60.55
2023-01-15T16:27:03.945Z,59.93
2023-01-15T16:29:35.086Z,58.64
2023-01-15T16:32:12.585Z,59.35
2023-01-15T16:34:41.916Z,60.34
2023-01-15T16:37:27.473Z,60.72
2023-01-15T16:39:56.512Z,60.79
2023-01-15T16:42:28.931Z,60.09
2023-01-15T16:45:01.239Z,59.39
2023-01-15T16:47:37.582Z,59.96
2023-01-15T16:50:31.496Z,59.01
2023-01-15T16:53:05.951Z,60.65
2023-01-15T16:55:43.249Z,60.30
2023-01-15T16:58:23.860Z,61.88
2023-01-15T17:00:55.946Z,60.56
2023-01-15T17:03:26.360Z,59.75
2023-01-15T17:05:56.894Z,59.10
2023-01-15T17:08:34.488Z,60.67
2023-01-15T17:11:05.318Z,61.33
2023-01-15T17:13:37.752Z,59.54
2023-01-15T17:16:16.863Z,59.83
2023-01-15T17:18:45.764Z,58.85
2023-01-15T17:21:21.659Z,61.49
2023-01-15T17:23:52.758Z,59.48
2023-01-15T17:26:25.129Z,60.10
2023-01-15T17:28:53.977Z,59.80
2023-01-15T17:31:28.555Z,59.64
2023-01-15T17:34:04.007Z,58.73
2023-01-15T17:36:33.039Z,58.15
2023-01-15T17:39:03.228Z,57.76
2023-01-15T17:41:32.241Z,59.30
2023-01-15T17:44:03.153Z,60.28
2023-01-15T17:46:31.891Z,60.55
2023-01-15T17:49:00.720Z,58.64
2023-01-15T17:51:30.527Z,59.21
2023-01-15T17:53:59.429Z,59.19
2023-01-15T17:56:47.018Z,57.82
2023-01-15T17:59:41.490Z,59.66
2023-01-15T18:02:34.163Z,58.97
2023-01-15T18:05:20.493Z,58.21
2023-01-15T18:07:49.345Z,58.33
2023-01-15T18:10:19.203Z,60.12
2023-01-15T18:12:53.108Z,57.91
2023-01-15T18:15:22.399Z,59.39
2023-01-15T18:17:51.369Z,60.29
2023-01-15T18:20:20.331Z,59.63
2023-01-15T18:22:48.975Z,59.62
2023-01-15T18:25:20.522Z,57.94
2023-01-15T18:27:51.467Z,59.10
2023-01-15T18:30:20.256Z,60.34
2023-01-15T18:32:49.008Z,59.23
2023-01-15T18:35:18.545Z,58.35
2023-01-15T18:37:46.942Z,58.97
2023-01-15T18:40:18.090Z,58.78
2023-01-15T18:43:04.075Z,59.57
2023-01-15T18:45:51.287Z,59.90
2023-01-15T18:48:20.017Z,60.96
2023-01-15T18:50:49.532Z,59.83
2023-01-15T18:53:18.250Z,59.61
2023-01-15T18:55:46.725Z,59.75
2023-01-15T18:58:15.155Z,59.42
2023-01-15T19:00:45.152Z,60.24
2023-01-15T19:03:13.741Z,60.48
2023-01-15T19:05:42.234Z,59.46
2023-01-15T19:08:10.453Z,60.73
2023-01-15T19:10:38.833Z,59.95
2023-01-15T19:13:07.249Z,60.49
2023-01-15T19:15:54.128Z,60.24
2023-01-15T19:18:41.089Z,59.35
2023-01-15T19:21:12.972Z,59.16
2023-01-15T19:23:41.668Z,59.96
2023-01-15T19:26:10.256Z,60.21
2023-01-15T19:28:38.470Z,61.96
2023-01-15T19:31:26.942Z,60.02
2023-01-15T19:34:13.099Z,59.52
2023-01-15T19:36:47.622Z,58.91
2023-01-15T19:39:17.714Z,61.04
2023-01-15T19:42:03.465Z,60.49
2023-01-15T19:44:49.619Z,60.71
2023-01-15T19:47:42.776Z,60.80
2023-01-15T19:50:21.801Z,59.76
2023-01-15T19:52:52.420Z,61.24
2023-01-15T19:55:21.884Z,60.83
2023-01-15T19:57:57.841Z,60.64
2023-01-15T20:00:26.917Z,60.42
2023-01-15T20:02:56.562Z,60.65
2023-01-15T20:05:30.815Z,58.77
2023-01-15T20:07:59.821Z,58.32
2023-01-15T20:10:30.188Z,59.79
2023-01-15T20:13:16.153Z,59.79
2023-01-15T20:15:47.040Z,60.82
2023-01-15T20:18:17.375Z,60.60
2023-01-15T20:20:47.593Z,60.20
2023-01-15T20:23:16.247Z,58.92
2023-01-15T20:25:48.942Z,59.57
2023-01-15T20:28:17.872Z,60.95
2023-01-15T20:30:46.461Z,60.63
2023-01-15T20:33:14.628Z,61.24
2023-01-15T20:35:43.035Z,62.56
2023-01-15T20:38:13.128Z,61.10
2023-01-15T20:40:41.677Z,61.21
2023-01-15T20:43:29.046Z,59.58
2023-01-15T20:46:08.676Z,60.72
2023-01-15T20:48:55.042Z,59.99
2023-01-15T20:51:23.555Z,59.16
2023-01-15T20:53:53.437Z,60.11
2023-01-15T20:56:21.906Z,59.07
2023-01-15T20:58:51.590Z,59.79
2023-01-15T21:01:20.415Z,60.18
2023-01-15T21:03:48.985Z,59.67
2023-01-15T21:06:17.227Z,60.30
2023-01-15T21:08:46.128Z,61.07
2023-01-15T21:11:15.978Z,60.46
2023-01-15T21:13:47.171Z,60.69
2023-01-15T21:16:16.586Z,60.80
2023-01-15T21:18:46.433Z,59.90
2023-01-15T21:21:17.247Z,60.96
2023-01-15T21:23:46.871Z,60.42
2023-01-15T21:26:17.641Z,60.58
2023-01-15T21:28:46.149Z,60.77
2023-01-15T21:31:15.570Z,60.47
2023-01-15T21:33:44.096Z,59.38
2023-01-15T21:36:13.749Z,59.94
2023-01-15T21:38:42.691Z,60.45
2023-01-15T21:41:13.410Z,60.40
2023-01-15T21:44:16.154Z,60.23
2023-01-15T21:46:44.773Z,61.16
2023-01-15T21:49:12.903Z,60.64
2023-01-15T21:51:41.330Z,59.64
2023-01-15T21:54:09.599Z,60.64
2023-01-15T21:56:39.673Z,58.95
2023-01-15T21:59:11.808Z,59.26
2023-01-15T22:01:40.467Z,59.25
2023-01-15T22:04:09.147Z,59.86
2023-01-15T22:06:38.105Z,60.30
2023-01-15T22:09:06.704Z,58.99
2023-01-15T22:11:44.855Z,59.64
2023-01-15T22:14:16.529Z,60.02
2023-01-15T22:16:46.430Z,60.48
2023-01-15T22:19:19.934Z,60.00
2023-01-15T22:21:49.955Z,59.36
2023-01-15T22:24:19.813Z,60.32
2023-01-15T22:26:53.997Z,60.91
2023-01-15T22:29:26.144Z,60.78
2023-01-15T22:31:54.936Z,61.21
2023-01-15T22:34:24.810Z,60.98
2023-01-15T22:36:54.440Z,60.47
2023-01-15T22:39:24.187Z,59.33
2023-01-15T22:42:10.310Z,59.71
2023-01-15T22:44:40.648Z,60.28
2023-01-15T22:47:09.166Z,59.49
2023-01-15T22:49:37.874Z,60.21
2023-01-15T22:52:06.590Z,59.83
2023-01-15T22:54:38.235Z,61.40
2023-01-15T22:57:06.943Z,60.81
2023-01-15T22:59:35.239Z,61.48
2023-01-15T23:02:05.117Z,59.90
2023-01-15T23:04:34.125Z,59.19
2023-01-15T23:07:03.065Z,60.30
2023-01-15T23:09:31.497Z,60.66
2023-01-15T23:11:59.680Z,59.72
2023-01-15T23:14:28.177Z,60.25
2023-01-15T23:16:56.363Z,60.82
2023-01-15T23:19:28.319Z,61.03
2023-01-15T23:21:57.056Z,61.14
2023-01-15T23:24:25.808Z,60.22
2023-01-15T23:26:54.231Z,60.22
2023-01-15T23:29:22.443Z,61.04
2023-01-15T23:31:50.866Z,60.47
2023-01-15T23:34:19.276Z,60.32
2023-01-15T23:36:49.708Z,60.11
2023-01-15T23:39:18.152Z,60.23
2023-01-15T23:42:04.361Z,60.35
2023-01-15T23:44:50.326Z,61.90
2023-01-15T23:47:18.839Z,60.33
2023-01-15T23:49:47.298Z,60.17
2023-01-15T23:52:16.900Z,61.15
2023-01-15T23:54:45.343Z,61.73
2023-01-15T23:57:13.766Z,60.31
2023-01-15T23:59:42.191Z,60.19
